الصفحة الرئيسية
METAR-TAF:

METAR-TAF

مطار :

St. George Municipal Airport

St. George, يوتا, الولايات المتحدة

دائرة عرض: 37-05N, خط طول: 113-36W, ارتفاع: 896 متر

مراقبة الطقس الحالي

تاريخ ووقت الإصدار 1ساعة و 3 دقيقة قبل الساعة 03:56UTC
ريح 3 عقدة من الشمال/الشمال الشرقي
درجة الحرارة 3°درجة مئوية
الرطوبة 48%
ضغط 1029 hPa
الرؤية: 16.1 كم
سماء صافية

METAR: KSGU 140356Z AUTO 02003KT 10SM CLR 03/M07 A3040 RMK AO2 SLP307 T00331072

زمن: 21:59 (04:59 UTC)

توقعات

تاريخ ووقت الإصدار 5ساعات و 39 دقيقة قبل الساعة 23:20UTC
التوقعات صالحة من14 الساعة 00 UTC إلى 14 الساعة 24 UTC
ريح 5 عقدةمن اتجاهات متغيرة
الرؤية: 10 كم
غيوم قليلة على ارتفاع 20000 قدم

TAF: KSGU 132320Z 1400/1424 VRB05KT P6SM FEW200

أرصاد الطقس والتوقعات من أكثر من 4000 مطار (تقارير الطقس للمطار METAR والتنبؤ بالطقس بالمطارTAF).

المحطات المتاحة هي النقط الصفراء والحمراء على الخريطة.

حرك المؤشر فوق النقطة لمعرفة اسم المحطة.

ثم انقر لمعرفة أرصاد وتوقعات الطقس.

لتغيير الخارطة: اضغط على الأزرار الخضراء مع رمز الصليب الأسود للتكبير. على الزر الأخضر مع شرطة للتصغير، أو على الأسهم الخضراء للخرائط المجاورة.


METAR-TAF: